Terminal Aerodrome Forecast
Issued by NWS

Home | Current Version | Previous Version | Text Only | Print | Product List | Glossary On
Versions: 1 2 3 4 5 6 7 8 9 10 11 12 13 14 15 16 17
361
FTUS44 KSJT 231736
TAFSOA
TAF
KSOA 231736Z 2318/2418 18016G26KT P6SM BKN015
     FM232000 17022G32KT P6SM SCT040
     FM240000 17020G30KT P6SM SCT250
     FM240600 18012G20KT P6SM VCTS BKN025CB
     FM240900 24012KT P6SM SCT025
     FM241500 26014G20KT P6SM SKC=

USA.gov is the U.S. government's official web portal to all federal, state and local government web resources and services.